createdAt,value
2017-12-12T00:00:50.302Z,6.48
2017-12-12T00:03:17.926Z,6.50
2017-12-12T00:05:45.530Z,6.47
2017-12-12T00:08:13.156Z,6.53
2017-12-12T00:10:41.057Z,6.54
2017-12-12T00:13:08.635Z,6.55
2017-12-12T00:15:36.247Z,6.55
2017-12-12T00:18:03.840Z,6.56
2017-12-12T00:20:31.468Z,6.52
2017-12-12T00:22:59.082Z,6.52
2017-12-12T00:25:26.657Z,6.56
2017-12-12T00:27:54.287Z,6.58
2017-12-12T00:30:21.876Z,6.58
2017-12-12T00:32:49.529Z,6.56
2017-12-12T00:35:17.100Z,6.60
2017-12-12T00:40:18.393Z,6.57
2017-12-12T00:42:46.321Z,6.57
2017-12-12T00:45:13.960Z,6.59
2017-12-12T00:47:41.538Z,6.60
2017-12-12T00:50:09.118Z,6.63
2017-12-12T00:52:36.720Z,6.65
2017-12-12T00:55:04.318Z,6.67
2017-12-12T00:57:31.884Z,6.66
2017-12-12T00:59:59.492Z,6.70
2017-12-12T01:02:27.065Z,6.70
2017-12-12T01:04:54.640Z,6.68
2017-12-12T01:07:22.232Z,6.69
2017-12-12T01:09:49.813Z,6.70
2017-12-12T01:12:17.440Z,6.69
2017-12-12T01:14:45.018Z,6.77
2017-12-12T01:17:12.604Z,6.75
2017-12-12T01:19:40.218Z,6.79
2017-12-12T01:22:07.796Z,6.81
2017-12-12T01:24:35.420Z,6.84
2017-12-12T01:27:03.002Z,6.92
2017-12-12T01:29:30.624Z,6.85
2017-12-12T01:31:58.235Z,6.87
2017-12-12T01:34:25.826Z,6.82
2017-12-12T01:36:53.446Z,6.75
2017-12-12T01:39:21.040Z,6.72
2017-12-12T01:41:48.645Z,6.75
2017-12-12T01:44:16.236Z,6.74
2017-12-12T01:46:44.119Z,6.72
2017-12-12T01:49:11.755Z,6.77
2017-12-12T01:51:39.327Z,6.75
2017-12-12T01:54:06.913Z,6.75
2017-12-12T01:56:34.539Z,6.74
2017-12-12T01:59:02.131Z,6.75
2017-12-12T02:01:29.761Z,6.77
2017-12-12T02:03:57.344Z,6.72
2017-12-12T02:06:24.968Z,6.75
2017-12-12T02:08:52.580Z,6.77
2017-12-12T02:11:20.194Z,6.75
2017-12-12T02:13:47.808Z,6.72
2017-12-12T02:16:15.380Z,6.79
2017-12-12T02:18:42.961Z,6.74
2017-12-12T02:21:10.555Z,6.78
2017-12-12T02:23:38.147Z,6.85
2017-12-12T02:26:05.808Z,6.80
2017-12-12T02:28:33.383Z,6.78
2017-12-12T02:31:00.975Z,6.82
2017-12-12T02:33:28.901Z,6.84
2017-12-12T02:35:56.485Z,6.87
2017-12-12T02:38:24.428Z,6.86
2017-12-12T02:40:52.010Z,6.87
2017-12-12T02:43:19.573Z,6.87
2017-12-12T02:45:47.164Z,6.86
2017-12-12T02:48:14.744Z,6.86
2017-12-12T02:50:42.647Z,6.89
2017-12-12T02:53:10.239Z,6.91
2017-12-12T02:55:37.814Z,6.93
2017-12-12T02:58:05.430Z,6.96
2017-12-12T03:00:33.020Z,7.03
2017-12-12T03:03:00.654Z,7.05
2017-12-12T03:05:28.521Z,6.99
2017-12-12T03:07:56.093Z,7.02
2017-12-12T03:10:23.684Z,7.00
2017-12-12T03:12:51.264Z,6.97
2017-12-12T03:15:18.873Z,6.99
2017-12-12T03:17:46.466Z,7.07
2017-12-12T03:20:14.036Z,7.10
2017-12-12T03:22:41.631Z,7.12
2017-12-12T03:25:09.209Z,7.10
2017-12-12T03:27:36.822Z,7.12
2017-12-12T03:30:04.417Z,7.21
2017-12-12T03:32:31.983Z,7.23
2017-12-12T03:34:59.589Z,7.27
2017-12-12T03:37:27.159Z,7.27
2017-12-12T03:39:54.769Z,7.34
2017-12-12T03:42:22.449Z,7.34
2017-12-12T03:44:50.317Z,7.41
2017-12-12T03:47:17.907Z,7.35
2017-12-12T03:49:45.580Z,7.41
2017-12-12T03:52:13.201Z,7.44
2017-12-12T03:54:40.783Z,7.48
2017-12-12T03:57:08.351Z,7.47
2017-12-12T03:59:35.945Z,7.49
2017-12-12T04:02:03.544Z,7.42
2017-12-12T04:04:31.149Z,7.46
2017-12-12T04:06:58.722Z,7.47
2017-12-12T04:09:26.353Z,7.43
2017-12-12T04:11:53.965Z,7.49
2017-12-12T04:14:21.540Z,7.46
2017-12-12T04:16:49.150Z,7.40
2017-12-12T04:19:16.762Z,7.44
2017-12-12T04:21:44.355Z,7.40
2017-12-12T04:24:11.946Z,7.43
2017-12-12T04:26:39.541Z,7.43
2017-12-12T04:29:07.152Z,7.49
2017-12-12T04:31:34.724Z,7.45
2017-12-12T04:34:02.305Z,7.49
2017-12-12T04:36:30.221Z,7.49
2017-12-12T04:38:58.087Z,7.47
2017-12-12T04:41:25.754Z,7.48
2017-12-12T04:43:53.363Z,7.47
2017-12-12T04:46:20.938Z,7.49
2017-12-12T04:48:48.543Z,7.46
2017-12-12T04:51:16.399Z,7.51
2017-12-12T04:53:44.026Z,7.52
2017-12-12T04:56:11.727Z,7.51
2017-12-12T04:58:39.592Z,7.50
2017-12-12T05:01:07.212Z,7.49
2017-12-12T05:03:35.121Z,7.47
2017-12-12T05:06:02.746Z,7.51
2017-12-12T05:08:30.335Z,7.49
2017-12-12T05:10:57.924Z,7.52
2017-12-12T05:13:25.876Z,7.52
2017-12-12T05:15:53.465Z,7.55
2017-12-12T05:18:21.092Z,7.55
2017-12-12T05:20:48.963Z,7.53
2017-12-12T05:23:16.547Z,7.55
2017-12-12T05:25:44.140Z,7.60
2017-12-12T05:28:11.722Z,7.60
2017-12-12T05:30:39.358Z,7.58
2017-12-12T05:33:06.946Z,7.66
2017-12-12T05:35:34.532Z,7.65
2017-12-12T05:38:02.144Z,7.63
2017-12-12T05:40:29.747Z,7.63
2017-12-12T05:42:57.365Z,7.64
2017-12-12T05:45:24.943Z,7.69
2017-12-12T05:47:52.525Z,7.67
2017-12-12T05:50:20.144Z,7.66
2017-12-12T05:52:47.770Z,7.68
2017-12-12T05:55:15.388Z,7.71
2017-12-12T05:57:42.955Z,7.72
2017-12-12T06:00:10.529Z,7.70
2017-12-12T06:02:38.133Z,7.71
2017-12-12T06:05:05.708Z,7.72
2017-12-12T06:07:33.319Z,7.72
2017-12-12T06:10:00.929Z,7.72
2017-12-12T06:12:28.491Z,7.75
2017-12-12T06:14:56.091Z,7.73
2017-12-12T06:17:23.684Z,7.74
2017-12-12T06:19:51.312Z,7.72
2017-12-12T06:22:19.316Z,7.74
2017-12-12T06:24:46.893Z,7.82
2017-12-12T06:27:14.741Z,7.81
2017-12-12T06:29:42.324Z,7.80
2017-12-12T06:32:09.944Z,7.81
2017-12-12T06:34:37.833Z,7.82
2017-12-12T06:37:05.415Z,7.82
2017-12-12T06:39:33.025Z,7.80
2017-12-12T06:42:00.612Z,7.78
2017-12-12T06:44:30.623Z,7.76
2017-12-12T06:46:58.241Z,7.74
2017-12-12T06:49:25.819Z,7.75
2017-12-12T06:51:53.415Z,7.71
2017-12-12T06:54:21.094Z,7.70
2017-12-12T06:56:48.715Z,7.70
2017-12-12T06:59:16.320Z,7.69
2017-12-12T07:01:43.983Z,7.66
2017-12-12T07:04:12.674Z,7.65
2017-12-12T07:06:40.325Z,7.65
2017-12-12T07:09:07.968Z,7.64
2017-12-12T07:11:35.578Z,7.70
2017-12-12T07:14:03.156Z,7.67
2017-12-12T07:16:30.766Z,7.56
2017-12-12T07:18:58.337Z,7.57
2017-12-12T07:21:25.956Z,7.60
2017-12-12T07:23:53.546Z,7.59
2017-12-12T07:26:21.123Z,7.59
2017-12-12T07:28:48.724Z,7.57
2017-12-12T07:31:16.342Z,7.56
2017-12-12T07:33:43.964Z,7.51
2017-12-12T07:36:11.932Z,7.53
2017-12-12T07:38:39.519Z,7.59
2017-12-12T07:41:08.571Z,7.53
2017-12-12T07:43:36.140Z,7.52
2017-12-12T07:46:03.771Z,7.52
2017-12-12T07:48:31.388Z,7.50
2017-12-12T07:50:58.977Z,7.45
2017-12-12T07:53:26.939Z,7.48
2017-12-12T07:55:54.543Z,7.45
2017-12-12T07:58:22.163Z,7.48
2017-12-12T08:00:49.761Z,7.46
2017-12-12T08:03:17.327Z,7.44
2017-12-12T08:05:44.927Z,7.41
2017-12-12T08:08:12.817Z,7.47
2017-12-12T08:10:40.410Z,7.42
2017-12-12T08:13:08.022Z,7.43
2017-12-12T08:15:35.590Z,7.35
2017-12-12T08:18:03.468Z,7.33
2017-12-12T08:20:31.098Z,7.26
2017-12-12T08:22:58.704Z,7.24
2017-12-12T08:25:26.570Z,6.75
2017-12-12T08:27:54.186Z,6.43
2017-12-12T08:30:21.764Z,6.35
2017-12-12T08:32:49.373Z,6.18
2017-12-12T08:35:16.951Z,5.95
2017-12-12T08:37:44.524Z,5.95
2017-12-12T08:40:12.126Z,5.71
2017-12-12T08:42:39.710Z,5.59
2017-12-12T08:45:07.326Z,5.51
2017-12-12T08:47:35.008Z,5.46
2017-12-12T08:50:02.579Z,5.37
2017-12-12T08:52:30.168Z,5.44
2017-12-12T08:54:57.765Z,5.29
2017-12-12T08:57:25.376Z,5.34
2017-12-12T08:59:52.948Z,5.27
2017-12-12T09:02:20.528Z,5.14
2017-12-12T09:04:48.119Z,5.06
2017-12-12T09:07:15.959Z,5.22
2017-12-12T09:09:43.650Z,4.96
2017-12-12T09:12:11.257Z,5.06
2017-12-12T09:14:39.115Z,4.99
2017-12-12T09:17:06.719Z,5.04
2017-12-12T09:19:34.388Z,4.92
2017-12-12T09:22:02.048Z,5.10
2017-12-12T09:24:29.664Z,5.08
2017-12-12T09:26:57.247Z,5.03
2017-12-12T09:29:24.888Z,4.96
2017-12-12T09:31:52.468Z,4.72
2017-12-12T09:34:20.595Z,4.72
2017-12-12T09:36:48.453Z,4.83
2017-12-12T09:39:16.154Z,4.80
2017-12-12T09:41:43.759Z,4.78
2017-12-12T09:44:11.367Z,4.75
2017-12-12T09:46:38.984Z,4.81
2017-12-12T09:49:06.556Z,4.73
2017-12-12T09:51:34.130Z,4.81
2017-12-12T09:54:02.019Z,4.88
2017-12-12T09:56:29.616Z,4.77
2017-12-12T09:58:57.552Z,4.83
2017-12-12T10:01:25.122Z,4.91
2017-12-12T10:03:52.694Z,4.74
2017-12-12T10:06:20.305Z,4.72
2017-12-12T10:08:47.904Z,4.51
2017-12-12T10:11:15.512Z,4.44
2017-12-12T10:13:43.327Z,4.34
2017-12-12T10:16:10.904Z,4.50
2017-12-12T10:18:38.500Z,4.61
2017-12-12T10:21:06.093Z,4.48
2017-12-12T10:23:33.684Z,4.38
2017-12-12T10:26:01.252Z,4.46
2017-12-12T10:28:28.875Z,4.50
2017-12-12T10:30:56.455Z,4.32
2017-12-12T10:33:24.155Z,4.37
2017-12-12T10:35:52.491Z,4.33
2017-12-12T10:38:20.444Z,4.37
2017-12-12T10:40:48.056Z,4.37
2017-12-12T10:43:15.667Z,4.46
2017-12-12T10:45:43.241Z,4.51
2017-12-12T10:48:10.852Z,4.44
2017-12-12T10:50:38.428Z,4.53
2017-12-12T10:53:06.056Z,4.51
2017-12-12T10:55:33.647Z,4.49
2017-12-12T10:58:01.243Z,4.65
2017-12-12T11:00:29.131Z,4.47
2017-12-12T11:02:56.740Z,4.63
2017-12-12T11:05:24.353Z,4.53
2017-12-12T11:07:52.186Z,4.60
2017-12-12T11:10:19.761Z,4.64
2017-12-12T11:12:47.856Z,4.40
2017-12-12T11:15:15.442Z,4.30
2017-12-12T11:17:43.354Z,4.21
2017-12-12T11:20:11.138Z,4.32
2017-12-12T11:22:38.705Z,4.20
2017-12-12T11:25:06.362Z,4.21
2017-12-12T11:27:33.956Z,4.13
2017-12-12T11:30:01.568Z,4.33
2017-12-12T11:32:29.177Z,4.20
2017-12-12T11:34:56.780Z,4.49
2017-12-12T11:37:30.092Z,4.51
2017-12-12T11:39:57.676Z,4.71
2017-12-12T11:42:25.300Z,4.74
2017-12-12T11:44:52.915Z,4.76
2017-12-12T11:47:20.516Z,4.88
2017-12-12T11:49:48.182Z,4.86
2017-12-12T11:52:15.895Z,4.73
2017-12-12T11:54:43.691Z,4.54
2017-12-12T11:57:11.524Z,4.57
2017-12-12T11:59:39.148Z,4.45
2017-12-12T12:02:06.744Z,4.59
2017-12-12T12:04:34.419Z,4.61
2017-12-12T12:07:02.090Z,4.70
2017-12-12T12:09:29.684Z,4.59
2017-12-12T12:11:57.302Z,4.64
2017-12-12T12:14:24.908Z,4.66
2017-12-12T12:16:52.475Z,4.62
2017-12-12T12:19:20.393Z,4.64
2017-12-12T12:21:48.210Z,4.53
2017-12-12T12:24:15.788Z,4.59
2017-12-12T12:26:43.436Z,4.65
2017-12-12T12:29:11.298Z,4.73
2017-12-12T12:31:38.912Z,4.72
2017-12-12T12:34:06.782Z,4.75
2017-12-12T12:36:34.358Z,4.73
2017-12-12T12:39:02.242Z,4.70
2017-12-12T12:41:29.819Z,4.73
2017-12-12T12:43:57.473Z,4.78
2017-12-12T12:46:25.044Z,4.73
2017-12-12T12:48:52.628Z,4.86
2017-12-12T12:51:20.242Z,4.80
2017-12-12T12:53:48.084Z,4.77
2017-12-12T12:56:15.692Z,4.95
2017-12-12T12:58:43.412Z,4.98
2017-12-12T13:01:10.993Z,4.86
2017-12-12T13:03:38.654Z,4.78
2017-12-12T13:06:06.236Z,4.81
2017-12-12T13:08:33.880Z,4.93
2017-12-12T13:11:01.476Z,4.98
2017-12-12T13:13:29.100Z,4.91
2017-12-12T13:15:56.721Z,4.81
2017-12-12T13:18:24.322Z,4.87
2017-12-12T13:20:51.980Z,4.81
2017-12-12T13:23:19.556Z,4.80
2017-12-12T13:25:47.136Z,4.80
2017-12-12T13:28:14.760Z,4.86
2017-12-12T13:30:42.355Z,4.84
2017-12-12T13:33:10.056Z,4.68
2017-12-12T13:35:37.932Z,4.69
2017-12-12T13:38:05.511Z,4.71
2017-12-12T13:40:33.152Z,4.69
2017-12-12T13:43:00.739Z,4.74
2017-12-12T13:45:28.709Z,4.80
2017-12-12T13:47:56.292Z,4.80
2017-12-12T13:50:23.997Z,4.78
2017-12-12T13:52:51.599Z,4.80
2017-12-12T13:55:19.172Z,4.86
2017-12-12T13:57:46.808Z,4.74
2017-12-12T14:00:15.212Z,4.80
2017-12-12T14:02:42.856Z,4.76
2017-12-12T14:05:10.480Z,4.78
2017-12-12T14:07:38.075Z,4.77
2017-12-12T14:10:05.701Z,4.80
2017-12-12T14:12:33.276Z,4.74
2017-12-12T14:15:00.874Z,4.78
2017-12-12T14:17:28.744Z,4.74
2017-12-12T14:19:56.328Z,4.81
2017-12-12T14:22:23.950Z,4.68
2017-12-12T14:24:51.823Z,4.72
2017-12-12T14:27:19.394Z,4.80
2017-12-12T14:29:47.002Z,4.75
2017-12-12T14:32:14.917Z,4.80
2017-12-12T14:34:42.583Z,4.82
2017-12-12T14:37:10.246Z,4.78
2017-12-12T14:39:37.911Z,4.74
2017-12-12T14:42:05.613Z,4.77
2017-12-12T14:44:33.212Z,4.67
2017-12-12T14:47:00.852Z,4.63
2017-12-12T14:49:28.567Z,4.64
2017-12-12T14:51:56.178Z,4.66
2017-12-12T14:54:23.784Z,4.76
2017-12-12T14:56:51.957Z,4.75
2017-12-12T14:59:19.556Z,4.72
2017-12-12T15:01:47.218Z,4.69
2017-12-12T15:04:14.847Z,4.66
2017-12-12T15:06:42.439Z,4.64
2017-12-12T15:09:10.080Z,4.60
2017-12-12T15:11:37.681Z,4.56
2017-12-12T15:14:05.522Z,4.59
2017-12-12T15:16:33.177Z,4.53
2017-12-12T15:19:01.169Z,4.44
2017-12-12T15:21:29.101Z,4.44
2017-12-12T15:23:56.733Z,4.43
2017-12-12T15:26:24.439Z,4.40
2017-12-12T15:28:52.091Z,4.32
2017-12-12T15:31:19.971Z,4.19
2017-12-12T15:33:47.581Z,4.13
2017-12-12T15:36:15.199Z,4.00
2017-12-12T15:38:43.052Z,3.95
2017-12-12T15:41:10.720Z,3.96
2017-12-12T15:43:38.343Z,3.82
2017-12-12T15:46:05.927Z,3.93
2017-12-12T15:48:33.806Z,3.90
2017-12-12T15:51:01.389Z,3.85
2017-12-12T15:53:29.008Z,3.85
2017-12-12T15:55:56.595Z,3.80
2017-12-12T15:58:24.184Z,3.81
2017-12-12T16:00:51.831Z,3.81
2017-12-12T16:03:19.424Z,3.83
2017-12-12T16:05:47.050Z,3.75
2017-12-12T16:08:14.887Z,3.82
2017-12-12T16:10:42.536Z,3.79
2017-12-12T16:13:10.183Z,3.83
2017-12-12T16:15:37.768Z,3.83
2017-12-12T16:18:05.440Z,3.86
2017-12-12T16:20:33.040Z,3.77
2017-12-12T16:23:00.661Z,3.81
2017-12-12T16:25:28.289Z,3.74
2017-12-12T16:27:55.880Z,3.69
2017-12-12T16:30:23.544Z,3.73
2017-12-12T16:32:51.133Z,3.66
2017-12-12T16:35:19.050Z,3.74
2017-12-12T16:37:46.965Z,3.69
2017-12-12T16:40:14.543Z,3.69
2017-12-12T16:42:42.159Z,3.60
2017-12-12T16:45:10.059Z,3.62
2017-12-12T16:47:38.649Z,3.59
2017-12-12T16:50:06.272Z,3.55
2017-12-12T16:52:33.912Z,3.57
2017-12-12T16:55:01.560Z,3.42
2017-12-12T16:57:29.457Z,3.41
2017-12-12T16:59:57.094Z,3.41
2017-12-12T17:02:24.764Z,3.41
2017-12-12T17:04:52.350Z,3.42
2017-12-12T17:07:20.074Z,3.45
2017-12-12T17:09:47.716Z,3.40
2017-12-12T17:12:15.444Z,3.43
2017-12-12T17:14:43.332Z,3.43
2017-12-12T17:17:10.930Z,3.50
2017-12-12T17:19:38.775Z,3.48
2017-12-12T17:22:06.373Z,3.35
2017-12-12T17:24:34.129Z,3.39
2017-12-12T17:27:02.073Z,3.55
2017-12-12T17:29:29.676Z,3.49
2017-12-12T17:31:57.433Z,3.53
2017-12-12T17:34:25.053Z,3.39
2017-12-12T17:36:52.925Z,3.36
2017-12-12T17:39:20.559Z,3.53
2017-12-12T17:41:48.286Z,3.51
2017-12-12T17:44:16.033Z,3.59
2017-12-12T17:46:43.606Z,3.33
2017-12-12T17:49:11.201Z,3.45
2017-12-12T17:51:38.928Z,3.49
2017-12-12T17:54:06.508Z,3.47
2017-12-12T17:56:34.203Z,3.46
2017-12-12T17:59:02.007Z,3.23
2017-12-12T18:01:29.701Z,3.33
2017-12-12T18:03:57.332Z,3.26
2017-12-12T18:06:25.193Z,3.12
2017-12-12T18:08:52.914Z,3.17
2017-12-12T18:11:20.769Z,3.03
2017-12-12T18:13:48.393Z,3.17
2017-12-12T18:16:16.005Z,3.07
2017-12-12T18:18:43.612Z,2.99
2017-12-12T18:21:11.460Z,3.08
2017-12-12T18:23:39.093Z,2.96
2017-12-12T18:26:06.738Z,3.11
2017-12-12T18:28:34.357Z,2.99
2017-12-12T18:31:02.492Z,3.08
2017-12-12T18:33:30.270Z,3.12
2017-12-12T18:35:57.883Z,3.21
2017-12-12T18:38:25.730Z,3.18
2017-12-12T18:40:53.343Z,3.02
2017-12-12T18:43:20.943Z,3.13
2017-12-12T18:45:48.554Z,3.20
2017-12-12T18:48:16.145Z,3.15
2017-12-12T18:50:43.792Z,3.18
2017-12-12T18:53:11.439Z,2.88
2017-12-12T18:55:39.377Z,3.05
2017-12-12T18:58:07.002Z,2.99
2017-12-12T19:00:34.843Z,2.92
2017-12-12T19:03:02.481Z,2.96
2017-12-12T19:05:30.108Z,3.01
2017-12-12T19:07:57.776Z,3.12
2017-12-12T19:10:25.844Z,3.14
2017-12-12T19:12:53.442Z,3.10
2017-12-12T19:15:21.252Z,3.00
2017-12-12T19:17:48.868Z,3.02
2017-12-12T19:20:16.460Z,3.04
2017-12-12T19:22:44.380Z,3.01
2017-12-12T19:25:11.969Z,3.00
2017-12-12T19:27:40.024Z,3.00
2017-12-12T19:30:07.662Z,2.96
2017-12-12T19:32:35.255Z,2.91
2017-12-12T19:35:02.916Z,2.90
2017-12-12T19:37:30.992Z,2.87
2017-12-12T19:39:58.668Z,2.84
2017-12-12T19:42:26.312Z,2.78
2017-12-12T19:44:53.978Z,2.81
2017-12-12T19:47:21.950Z,2.79
2017-12-12T19:49:49.676Z,2.78
2017-12-12T19:52:17.263Z,2.77
2017-12-12T19:54:44.888Z,2.72
2017-12-12T19:57:12.480Z,2.79
2017-12-12T19:59:40.113Z,2.84
2017-12-12T20:02:07.699Z,2.82
2017-12-12T20:04:35.338Z,2.90
2017-12-12T20:07:02.959Z,2.89
2017-12-12T20:09:30.594Z,2.83
2017-12-12T20:11:58.244Z,2.71
2017-12-12T20:14:25.883Z,2.71
2017-12-12T20:16:53.464Z,2.62
2017-12-12T20:19:22.212Z,2.70
2017-12-12T20:21:50.160Z,2.88
2017-12-12T20:24:17.780Z,2.86
2017-12-12T20:26:45.366Z,2.98
2017-12-12T20:29:12.963Z,2.77
2017-12-12T20:31:40.572Z,2.89
2017-12-12T20:34:08.182Z,2.83
2017-12-12T20:36:35.829Z,2.85
2017-12-12T20:39:03.427Z,2.92
2017-12-12T20:41:31.047Z,2.87
2017-12-12T20:43:58.951Z,2.88
2017-12-12T20:46:26.568Z,2.85
2017-12-12T20:48:54.446Z,2.79
2017-12-12T20:51:22.098Z,2.82
2017-12-12T20:53:51.524Z,2.83
2017-12-12T20:56:19.143Z,2.79
2017-12-12T20:58:46.771Z,2.82
2017-12-12T21:01:14.434Z,2.89
2017-12-12T21:03:42.041Z,2.94
2017-12-12T21:06:09.639Z,2.89
2017-12-12T21:08:37.244Z,2.94
2017-12-12T21:11:04.825Z,2.85
2017-12-12T21:13:32.701Z,2.86
2017-12-12T21:16:00.298Z,2.88
2017-12-12T21:18:28.200Z,2.91
2017-12-12T21:20:56.080Z,2.88
2017-12-12T21:23:23.756Z,2.83
2017-12-12T21:25:51.640Z,2.84
2017-12-12T21:28:19.229Z,2.91
2017-12-12T21:30:47.291Z,2.82
2017-12-12T21:33:15.315Z,2.86
2017-12-12T21:35:43.065Z,2.89
2017-12-12T21:38:10.706Z,3.00
2017-12-12T21:40:38.304Z,2.91
2017-12-12T21:43:05.921Z,2.87
2017-12-12T21:45:33.525Z,3.00
2017-12-12T21:48:01.174Z,3.00
2017-12-12T21:50:28.823Z,2.98
2017-12-12T21:52:56.427Z,2.95
2017-12-12T21:55:24.025Z,2.96
2017-12-12T21:57:51.688Z,3.03
2017-12-12T22:00:19.295Z,3.02
2017-12-12T22:02:47.196Z,3.00
2017-12-12T22:05:14.848Z,3.03
2017-12-12T22:07:42.728Z,3.06
2017-12-12T22:10:12.693Z,3.14
2017-12-12T22:12:40.587Z,3.10
2017-12-12T22:15:08.222Z,3.16
2017-12-12T22:17:36.146Z,3.11
2017-12-12T22:20:03.736Z,3.17
2017-12-12T22:22:31.369Z,3.26
2017-12-12T22:24:58.951Z,3.27
2017-12-12T22:27:26.535Z,3.28
2017-12-12T22:29:54.168Z,3.21
2017-12-12T22:32:22.028Z,3.28
2017-12-12T22:34:49.609Z,3.33
2017-12-12T22:37:17.556Z,3.28
2017-12-12T22:39:45.279Z,3.34
2017-12-12T22:42:12.885Z,3.36
2017-12-12T22:44:40.476Z,3.39
2017-12-12T22:47:08.077Z,3.40
2017-12-12T22:49:35.674Z,3.42
2017-12-12T22:52:03.255Z,3.27
2017-12-12T22:54:30.882Z,3.29
2017-12-12T22:56:58.851Z,3.34
2017-12-12T22:59:26.428Z,3.38
2017-12-12T23:01:54.057Z,3.45
2017-12-12T23:04:21.974Z,3.43
2017-12-12T23:06:49.645Z,3.49
2017-12-12T23:09:17.261Z,3.45
2017-12-12T23:11:45.139Z,3.52
2017-12-12T23:14:12.767Z,3.44
2017-12-12T23:16:40.368Z,3.45
2017-12-12T23:19:08.135Z,3.44
2017-12-12T23:21:35.724Z,3.41
2017-12-12T23:24:03.319Z,3.40
2017-12-12T23:26:30.956Z,3.46
2017-12-12T23:28:58.544Z,3.39
2017-12-12T23:31:26.172Z,3.45
2017-12-12T23:33:53.765Z,3.43
2017-12-12T23:36:21.356Z,3.38
2017-12-12T23:38:48.979Z,3.40
2017-12-12T23:41:16.566Z,3.31
2017-12-12T23:43:44.200Z,3.33
2017-12-12T23:46:11.850Z,3.35
2017-12-12T23:48:39.448Z,3.35
2017-12-12T23:51:07.337Z,3.34
2017-12-12T23:53:34.957Z,3.40
2017-12-12T23:56:02.583Z,3.33
2017-12-12T23:58:30.201Z,3.26
